createdAt,value
2018-05-07T00:00:43.865Z,0
2018-05-07T00:01:45.908Z,0
2018-05-07T00:02:48.226Z,0
2018-05-07T00:03:50.259Z,0
2018-05-07T00:04:52.295Z,0
2018-05-07T00:05:54.386Z,0
2018-05-07T00:06:56.759Z,0
2018-05-07T00:07:58.793Z,0
2018-05-07T00:09:01.116Z,0
2018-05-07T00:10:03.467Z,0
2018-05-07T00:11:05.494Z,0
2018-05-07T00:12:07.521Z,0
2018-05-07T00:13:09.564Z,0
2018-05-07T00:14:11.611Z,0
2018-05-07T00:15:13.643Z,0
2018-05-07T00:16:15.673Z,0
2018-05-07T00:17:17.707Z,0
2018-05-07T00:18:19.740Z,0
2018-05-07T00:19:21.776Z,0
2018-05-07T00:20:24.097Z,0
2018-05-07T00:21:26.143Z,0
2018-05-07T00:22:28.178Z,0
2018-05-07T00:23:30.219Z,0
2018-05-07T00:24:32.238Z,0
2018-05-07T00:25:34.305Z,0
2018-05-07T00:26:36.761Z,0
2018-05-07T00:27:38.703Z,0
2018-05-07T00:28:40.827Z,0
2018-05-07T00:29:42.770Z,0
2018-05-07T00:30:44.811Z,0
2018-05-07T00:31:46.846Z,0
2018-05-07T00:32:49.470Z,0
2018-05-07T00:33:51.516Z,0
2018-05-07T00:34:53.893Z,0
2018-05-07T00:35:55.925Z,0
2018-05-07T00:36:58.555Z,0
2018-05-07T00:38:00.586Z,0
2018-05-07T00:39:02.623Z,0
2018-05-07T00:40:05.035Z,0
2018-05-07T00:41:07.358Z,0
2018-05-07T00:42:09.403Z,0
2018-05-07T00:43:11.448Z,0
2018-05-07T00:44:13.797Z,0
2018-05-07T00:45:15.838Z,0
2018-05-07T00:46:17.869Z,0
2018-05-07T00:47:19.899Z,0
2018-05-07T00:48:21.932Z,0
2018-05-07T00:49:23.973Z,0
2018-05-07T00:50:26.004Z,0
2018-05-07T00:51:28.045Z,0
2018-05-07T00:52:30.087Z,0
2018-05-07T00:53:32.395Z,0
2018-05-07T00:54:34.420Z,0
2018-05-07T00:55:36.459Z,0
2018-05-07T00:56:38.494Z,0
2018-05-07T00:57:40.822Z,0
2018-05-07T00:58:43.249Z,0
2018-05-07T00:59:45.283Z,0
2018-05-07T01:00:47.317Z,0
2018-05-07T01:01:49.360Z,0
2018-05-07T01:02:51.389Z,0
2018-05-07T01:03:53.708Z,0
2018-05-07T01:04:56.129Z,0
2018-05-07T01:05:58.166Z,0
2018-05-07T01:07:00.197Z,0
2018-05-07T01:08:02.223Z,0
2018-05-07T01:09:04.555Z,0
2018-05-07T01:10:06.590Z,0
2018-05-07T01:11:08.618Z,0
2018-05-07T01:12:10.655Z,0
2018-05-07T01:13:12.693Z,0
2018-05-07T01:14:14.725Z,0
2018-05-07T01:15:16.752Z,0
2018-05-07T01:16:18.795Z,0
2018-05-07T01:17:21.118Z,0
2018-05-07T01:18:23.147Z,0
2018-05-07T01:19:25.181Z,0
2018-05-07T01:20:27.218Z,0
2018-05-07T01:21:29.260Z,0
2018-05-07T01:22:31.286Z,0
2018-05-07T01:23:33.709Z,0
2018-05-07T01:24:35.737Z,0
2018-05-07T01:25:38.451Z,0
2018-05-07T01:26:40.839Z,0
2018-05-07T01:27:42.815Z,0
2018-05-07T01:28:44.840Z,0
2018-05-07T01:29:46.882Z,0
2018-05-07T01:30:48.908Z,0
2018-05-07T01:31:50.942Z,0
2018-05-07T01:32:53.365Z,0
2018-05-07T01:33:55.396Z,0
2018-05-07T01:34:57.424Z,0
2018-05-07T01:35:59.463Z,0
2018-05-07T01:37:01.491Z,0
2018-05-07T01:38:03.817Z,0
2018-05-07T01:39:05.847Z,0
2018-05-07T01:40:08.173Z,0
2018-05-07T01:41:10.211Z,0
2018-05-07T01:42:12.244Z,0
2018-05-07T01:43:14.562Z,0
2018-05-07T01:44:16.595Z,0
2018-05-07T01:45:18.635Z,0
2018-05-07T01:46:20.680Z,0
2018-05-07T01:47:22.995Z,0
2018-05-07T01:48:25.028Z,0
2018-05-07T01:49:27.067Z,0
2018-05-07T01:50:29.101Z,0
2018-05-07T01:51:31.419Z,0
2018-05-07T01:52:33.451Z,0
2018-05-07T01:53:35.487Z,0
2018-05-07T01:54:37.806Z,0
2018-05-07T01:55:40.106Z,0
2018-05-07T01:56:42.144Z,0
2018-05-07T01:57:44.170Z,0
2018-05-07T01:58:46.206Z,0
2018-05-07T01:59:48.244Z,0
2018-05-07T02:00:50.598Z,0
2018-05-07T02:01:52.911Z,0
2018-05-07T02:02:55.321Z,0
2018-05-07T02:03:57.356Z,0
2018-05-07T02:04:59.387Z,0
2018-05-07T02:06:01.426Z,0
2018-05-07T02:07:03.459Z,0
2018-05-07T02:08:05.498Z,0
2018-05-07T02:09:07.532Z,0
2018-05-07T02:10:09.845Z,0
2018-05-07T02:11:11.878Z,0
2018-05-07T02:12:13.918Z,0
2018-05-07T02:13:15.953Z,0
2018-05-07T02:14:18.265Z,0
2018-05-07T02:15:20.687Z,0
2018-05-07T02:16:22.715Z,0
2018-05-07T02:17:24.747Z,0
2018-05-07T02:18:26.783Z,0
2018-05-07T02:19:29.092Z,0
2018-05-07T02:20:31.129Z,0
2018-05-07T02:21:33.159Z,0
2018-05-07T02:22:35.193Z,0
2018-05-07T02:23:37.223Z,0
2018-05-07T02:24:39.253Z,0
2018-05-07T02:25:41.669Z,0
2018-05-07T02:26:43.707Z,0
2018-05-07T02:27:45.731Z,0
2018-05-07T02:28:47.769Z,0
2018-05-07T02:29:49.801Z,0
2018-05-07T02:30:52.516Z,0
2018-05-07T02:31:54.852Z,0
2018-05-07T02:32:56.890Z,0
2018-05-07T02:33:58.950Z,0
2018-05-07T02:35:01.009Z,0
2018-05-07T02:36:03.402Z,0
2018-05-07T02:37:05.737Z,0
2018-05-07T02:38:08.060Z,0
2018-05-07T02:39:10.469Z,0
2018-05-07T02:40:12.503Z,0
2018-05-07T02:41:14.920Z,0
2018-05-07T02:42:16.952Z,0
2018-05-07T02:43:19.377Z,0
2018-05-07T02:44:21.797Z,0
2018-05-07T02:45:24.941Z,0
2018-05-07T02:46:27.548Z,0
2018-05-07T02:47:29.586Z,0
2018-05-07T02:48:31.900Z,0
2018-05-07T02:49:34.229Z,0
2018-05-07T02:50:36.263Z,0
2018-05-07T02:51:38.586Z,0
2018-05-07T02:52:41.009Z,0
2018-05-07T02:53:43.046Z,0
2018-05-07T02:54:45.067Z,0
2018-05-07T02:55:47.491Z,0
2018-05-07T02:56:49.522Z,0
2018-05-07T02:57:51.842Z,0
2018-05-07T02:58:53.877Z,0
2018-05-07T02:59:55.907Z,0
2018-05-07T03:00:57.935Z,0
2018-05-07T03:01:59.975Z,0
2018-05-07T03:03:02.011Z,0
2018-05-07T03:04:04.038Z,0
2018-05-07T03:05:06.460Z,0
2018-05-07T03:06:08.497Z,0
2018-05-07T03:07:10.518Z,0
2018-05-07T03:08:12.549Z,0
2018-05-07T03:09:14.884Z,0
2018-05-07T03:10:16.917Z,0
2018-05-07T03:11:18.955Z,0
2018-05-07T03:12:20.987Z,0
2018-05-07T03:13:23.409Z,0
2018-05-07T03:14:25.434Z,0
2018-05-07T03:15:27.850Z,0
2018-05-07T03:16:29.893Z,0
2018-05-07T03:17:32.626Z,0
2018-05-07T03:18:34.572Z,0
2018-05-07T03:19:37.211Z,1
2018-05-07T03:20:39.245Z,1
2018-05-07T03:21:41.558Z,1
2018-05-07T03:22:43.590Z,1
2018-05-07T03:23:45.618Z,1
2018-05-07T03:24:47.708Z,1
2018-05-07T03:25:49.680Z,1
2018-05-07T03:26:51.713Z,1
2018-05-07T03:27:54.045Z,1
2018-05-07T03:28:56.367Z,2
2018-05-07T03:29:58.784Z,2
2018-05-07T03:31:01.217Z,2
2018-05-07T03:32:03.242Z,2
2018-05-07T03:33:05.270Z,2
2018-05-07T03:34:07.605Z,3
2018-05-07T03:35:10.335Z,3
2018-05-07T03:36:12.366Z,3
2018-05-07T03:37:14.795Z,3
2018-05-07T03:38:16.832Z,3
2018-05-07T03:39:18.863Z,4
2018-05-07T03:40:21.277Z,4
2018-05-07T03:41:23.305Z,4
2018-05-07T03:42:25.347Z,4
2018-05-07T03:43:27.373Z,5
2018-05-07T03:44:29.409Z,5
2018-05-07T03:45:31.440Z,5
2018-05-07T03:46:33.469Z,5
2018-05-07T03:47:35.498Z,6
2018-05-07T03:48:37.613Z,6
2018-05-07T03:49:39.979Z,6
2018-05-07T03:50:42.014Z,6
2018-05-07T03:51:44.043Z,7
2018-05-07T03:52:46.068Z,7
2018-05-07T03:53:48.105Z,7
2018-05-07T03:54:50.138Z,7
2018-05-07T03:55:52.172Z,8
2018-05-07T03:56:54.205Z,8
2018-05-07T03:57:56.243Z,8
2018-05-07T03:58:58.657Z,9
2018-05-07T04:00:00.685Z,9
2018-05-07T04:01:02.749Z,9
2018-05-07T04:02:05.067Z,10
2018-05-07T04:03:07.489Z,10
2018-05-07T04:04:09.813Z,10
2018-05-07T04:05:11.849Z,10
2018-05-07T04:06:13.870Z,11
2018-05-07T04:07:15.992Z,11
2018-05-07T04:08:17.941Z,11
2018-05-07T04:09:20.365Z,12
2018-05-07T04:10:22.388Z,12
2018-05-07T04:11:24.420Z,12
2018-05-07T04:12:26.450Z,12
2018-05-07T04:13:28.493Z,13
2018-05-07T04:14:30.524Z,13
2018-05-07T04:15:32.841Z,13
2018-05-07T04:16:34.868Z,13
2018-05-07T04:17:36.903Z,14
2018-05-07T04:18:38.936Z,14
2018-05-07T04:19:40.969Z,14
2018-05-07T04:20:43.383Z,15
2018-05-07T04:21:45.427Z,15
2018-05-07T04:22:47.441Z,15
2018-05-07T04:23:49.479Z,15
2018-05-07T04:24:51.515Z,16
2018-05-07T04:25:53.545Z,16
2018-05-07T04:26:55.583Z,16
2018-05-07T04:27:57.613Z,16
2018-05-07T04:28:59.651Z,17
2018-05-07T04:30:02.085Z,17
2018-05-07T04:31:04.385Z,17
2018-05-07T04:32:06.810Z,17
2018-05-07T04:33:08.841Z,18
2018-05-07T04:34:10.874Z,18
2018-05-07T04:35:13.192Z,18
2018-05-07T04:36:15.223Z,18
2018-05-07T04:37:17.254Z,19
2018-05-07T04:38:19.290Z,19
2018-05-07T04:39:21.704Z,19
2018-05-07T04:40:23.750Z,19
2018-05-07T04:41:25.783Z,20
2018-05-07T04:42:27.824Z,20
2018-05-07T04:43:29.865Z,20
2018-05-07T04:44:32.190Z,20
2018-05-07T04:45:34.228Z,20
2018-05-07T04:46:36.263Z,21
2018-05-07T04:47:38.298Z,21
2018-05-07T04:48:40.340Z,21
2018-05-07T04:49:42.368Z,21
2018-05-07T04:50:44.410Z,21
2018-05-07T04:51:46.434Z,21
2018-05-07T04:52:48.760Z,21
2018-05-07T04:53:50.789Z,21
2018-05-07T04:54:52.826Z,22
2018-05-07T04:55:54.871Z,22
2018-05-07T04:56:56.899Z,22
2018-05-07T04:57:58.927Z,22
2018-05-07T04:59:01.247Z,22
2018-05-07T05:00:03.561Z,23
2018-05-07T05:01:05.596Z,23
2018-05-07T05:02:07.635Z,23
2018-05-07T05:03:09.980Z,23
2018-05-07T05:04:12.015Z,23
2018-05-07T05:05:14.045Z,24
2018-05-07T05:06:16.517Z,24
2018-05-07T05:07:18.994Z,24
2018-05-07T05:08:21.020Z,24
2018-05-07T05:09:23.051Z,25
2018-05-07T05:10:25.090Z,25
2018-05-07T05:11:27.427Z,25
2018-05-07T05:12:29.458Z,25
2018-05-07T05:13:31.494Z,25
2018-05-07T05:14:33.531Z,26
2018-05-07T05:15:35.848Z,26
2018-05-07T05:16:37.880Z,26
2018-05-07T05:17:39.913Z,26
2018-05-07T05:18:42.264Z,26
2018-05-07T05:19:44.601Z,27
2018-05-07T05:20:46.638Z,27
2018-05-07T05:21:48.681Z,27
2018-05-07T05:22:50.714Z,27
2018-05-07T05:23:52.742Z,27
2018-05-07T05:24:54.779Z,28
2018-05-07T05:25:56.812Z,28
2018-05-07T05:26:58.844Z,28
2018-05-07T05:28:01.462Z,28
2018-05-07T05:29:03.484Z,28
2018-05-07T05:30:05.800Z,28
2018-05-07T05:31:07.838Z,29
2018-05-07T05:32:09.873Z,29
2018-05-07T05:33:11.913Z,29
2018-05-07T05:34:13.947Z,29
2018-05-07T05:35:15.976Z,29
2018-05-07T05:36:18.021Z,30
2018-05-07T05:37:20.051Z,31
2018-05-07T05:38:22.092Z,30
2018-05-07T05:39:24.129Z,30
2018-05-07T05:40:26.164Z,30
2018-05-07T05:41:28.202Z,31
2018-05-07T05:42:30.520Z,31
2018-05-07T05:43:33.002Z,31
2018-05-07T05:44:35.242Z,31
2018-05-07T05:45:37.272Z,31
2018-05-07T05:46:39.320Z,31
2018-05-07T05:47:41.633Z,32
2018-05-07T05:48:43.669Z,32
2018-05-07T05:49:45.713Z,32
2018-05-07T05:50:47.746Z,32
2018-05-07T05:51:49.781Z,32
2018-05-07T05:52:52.095Z,33
2018-05-07T05:53:54.131Z,33
2018-05-07T05:54:56.462Z,33
2018-05-07T05:55:58.497Z,33
2018-05-07T05:57:00.545Z,33
2018-05-07T05:58:02.963Z,33
2018-05-07T05:59:05.000Z,34
2018-05-07T06:00:07.041Z,34
2018-05-07T06:01:09.369Z,34
2018-05-07T06:02:11.427Z,34
2018-05-07T06:03:13.780Z,34
2018-05-07T06:04:16.102Z,34
2018-05-07T06:05:18.145Z,35
2018-05-07T06:06:20.186Z,35
2018-05-07T06:07:22.911Z,35
2018-05-07T06:08:24.942Z,35
2018-05-07T06:09:26.984Z,35
2018-05-07T06:10:29.019Z,35
2018-05-07T06:11:31.070Z,35
2018-05-07T06:12:33.111Z,35
2018-05-07T06:13:35.148Z,35
2018-05-07T06:14:37.736Z,35
2018-05-07T06:15:39.615Z,35
2018-05-07T06:16:41.653Z,35
2018-05-07T06:17:43.699Z,36
2018-05-07T06:18:45.733Z,36
2018-05-07T06:19:47.775Z,37
2018-05-07T06:20:50.092Z,36
2018-05-07T06:21:52.129Z,36
2018-05-07T06:22:54.174Z,36
2018-05-07T06:23:56.218Z,37
2018-05-07T06:24:58.647Z,37
2018-05-07T06:26:01.077Z,37
2018-05-07T06:27:03.115Z,37
2018-05-07T06:28:05.156Z,37
2018-05-07T06:29:07.193Z,37
2018-05-07T06:30:09.281Z,38
2018-05-07T06:31:11.327Z,38
2018-05-07T06:32:13.374Z,38
2018-05-07T06:33:15.436Z,38
2018-05-07T06:34:18.006Z,38
2018-05-07T06:35:19.975Z,38
2018-05-07T06:36:22.020Z,38
2018-05-07T06:37:24.067Z,39
2018-05-07T06:38:26.414Z,39
2018-05-07T06:39:28.448Z,39
2018-05-07T06:40:30.510Z,39
2018-05-07T06:41:32.528Z,39
2018-05-07T06:42:34.589Z,39
2018-05-07T06:43:37.206Z,40
2018-05-07T06:44:39.251Z,40
2018-05-07T06:45:41.291Z,40
2018-05-07T06:46:43.332Z,40
2018-05-07T06:47:45.376Z,40
2018-05-07T06:48:47.420Z,40
2018-05-07T06:49:49.838Z,41
2018-05-07T06:50:52.174Z,41
2018-05-07T06:51:54.232Z,41
2018-05-07T06:52:56.273Z,41
2018-05-07T06:53:58.310Z,41
2018-05-07T06:55:00.356Z,41
2018-05-07T06:56:02.689Z,42
2018-05-07T06:57:04.735Z,42
2018-05-07T06:58:06.772Z,42
2018-05-07T06:59:08.823Z,42
2018-05-07T07:00:10.871Z,42
2018-05-07T07:01:12.905Z,42
2018-05-07T07:02:15.446Z,43
2018-05-07T07:03:17.804Z,43
2018-05-07T07:04:20.524Z,43
2018-05-07T07:05:22.569Z,43
2018-05-07T07:06:24.618Z,43
2018-05-07T07:07:26.698Z,43
2018-05-07T07:08:30.155Z,44
2018-05-07T07:09:31.948Z,44
2018-05-07T07:10:33.995Z,44
2018-05-07T07:11:36.032Z,44
2018-05-07T07:12:38.064Z,44
2018-05-07T07:13:40.106Z,45
2018-05-07T07:14:42.148Z,45
2018-05-07T07:15:44.471Z,45
2018-05-07T07:16:46.513Z,45
2018-05-07T07:17:48.566Z,46
2018-05-07T07:18:50.624Z,46
2018-05-07T07:19:53.049Z,46
2018-05-07T07:20:55.091Z,46
2018-05-07T07:21:57.129Z,46
2018-05-07T07:22:59.171Z,46
2018-05-07T07:24:01.211Z,46
2018-05-07T07:25:03.249Z,47
2018-05-07T07:26:05.298Z,47
2018-05-07T07:27:07.339Z,47
2018-05-07T07:28:09.982Z,47
2018-05-07T07:29:12.328Z,47
2018-05-07T07:30:14.368Z,48
2018-05-07T07:31:16.420Z,48
2018-05-07T07:32:18.457Z,48
2018-05-07T07:33:20.781Z,48
2018-05-07T07:34:23.124Z,48
2018-05-07T07:35:25.558Z,48
2018-05-07T07:36:27.984Z,49
2018-05-07T07:37:30.037Z,49
2018-05-07T07:38:32.469Z,49
2018-05-07T07:39:35.099Z,49
2018-05-07T07:40:37.067Z,49
2018-05-07T07:41:39.110Z,50
2018-05-07T07:42:41.152Z,50
2018-05-07T07:43:43.180Z,51
2018-05-07T07:44:45.235Z,50
2018-05-07T07:45:47.278Z,50
2018-05-07T07:46:49.613Z,51
2018-05-07T07:47:51.658Z,51
2018-05-07T07:48:53.701Z,51
2018-05-07T07:49:56.042Z,51
2018-05-07T07:50:58.076Z,51
2018-05-07T07:52:00.120Z,51
2018-05-07T07:53:02.464Z,52
2018-05-07T07:54:04.801Z,52
2018-05-07T07:55:06.844Z,52
2018-05-07T07:56:08.883Z,52
2018-05-07T07:57:11.212Z,53
2018-05-07T07:58:13.252Z,53
2018-05-07T07:59:15.303Z,53
2018-05-07T08:00:17.644Z,53
2018-05-07T08:01:19.692Z,53
2018-05-07T08:02:22.128Z,54
2018-05-07T08:03:24.461Z,54
2018-05-07T08:04:26.893Z,54
2018-05-07T08:05:29.234Z,54
2018-05-07T08:06:31.271Z,55
2018-05-07T08:07:33.317Z,55
2018-05-07T08:08:35.646Z,55
2018-05-07T08:09:37.989Z,56
2018-05-07T08:10:40.030Z,87
2018-05-07T08:11:42.075Z,83
2018-05-07T08:12:44.116Z,63
2018-05-07T08:13:46.164Z,59
2018-05-07T08:14:48.209Z,59
2018-05-07T08:15:50.261Z,80
2018-05-07T08:16:52.305Z,107
2018-05-07T08:17:54.653Z,115
2018-05-07T08:18:57.077Z,132
2018-05-07T08:19:59.122Z,110
2018-05-07T08:21:01.167Z,156
2018-05-07T08:22:03.214Z,369
2018-05-07T08:23:05.260Z,484
2018-05-07T08:24:07.309Z,458
2018-05-07T08:25:09.345Z,422
2018-05-07T08:26:11.401Z,455
2018-05-07T08:27:13.442Z,449
2018-05-07T08:28:15.483Z,479
2018-05-07T08:29:17.533Z,503
2018-05-07T08:30:19.612Z,490
2018-05-07T08:31:21.914Z,431
2018-05-07T08:32:24.355Z,446
2018-05-07T08:33:26.395Z,454
2018-05-07T08:34:28.446Z,475
2018-05-07T08:35:30.485Z,452
2018-05-07T08:36:32.878Z,463
2018-05-07T08:37:34.911Z,463
2018-05-07T08:38:36.965Z,461
2018-05-07T08:39:39.302Z,431
2018-05-07T08:40:41.348Z,467
2018-05-07T08:41:43.390Z,485
2018-05-07T08:42:45.437Z,447
2018-05-07T08:43:47.477Z,466
2018-05-07T08:44:49.522Z,465
2018-05-07T08:45:51.559Z,540
2018-05-07T08:46:54.007Z,539
2018-05-07T08:47:56.317Z,442
2018-05-07T08:48:58.657Z,471
2018-05-07T08:50:00.720Z,548
2018-05-07T08:51:02.825Z,610
2018-05-07T08:52:04.816Z,568
2018-05-07T08:53:06.907Z,482
2018-05-07T08:54:08.904Z,515
2018-05-07T08:55:10.962Z,557
2018-05-07T08:56:12.998Z,570
2018-05-07T08:57:15.054Z,546
2018-05-07T08:58:17.102Z,505
2018-05-07T08:59:19.148Z,514
2018-05-07T09:00:21.185Z,481
2018-05-07T09:01:23.234Z,404
2018-05-07T09:02:25.273Z,441
2018-05-07T09:03:27.320Z,562
2018-05-07T09:04:29.360Z,529
2018-05-07T09:05:31.416Z,503
2018-05-07T09:06:33.459Z,557
2018-05-07T09:07:35.509Z,578
2018-05-07T09:08:37.562Z,531
2018-05-07T09:09:39.613Z,502
2018-05-07T09:10:41.657Z,583
2018-05-07T09:11:43.703Z,569
2018-05-07T09:12:45.753Z,558
2018-05-07T09:13:47.815Z,582
2018-05-07T09:14:50.169Z,509
2018-05-07T09:15:52.217Z,577
2018-05-07T09:16:54.263Z,636
2018-05-07T09:17:56.598Z,547
2018-05-07T09:18:58.649Z,538
2018-05-07T09:20:00.701Z,591
2018-05-07T09:21:03.310Z,619
2018-05-07T09:22:05.360Z,569
2018-05-07T09:23:07.412Z,547
2018-05-07T09:24:09.743Z,512
2018-05-07T09:25:11.788Z,510
2018-05-07T09:26:14.230Z,543
2018-05-07T09:27:16.284Z,564
2018-05-07T09:28:18.330Z,502
2018-05-07T09:29:20.671Z,492
2018-05-07T09:30:22.731Z,539
2018-05-07T09:31:24.869Z,575
2018-05-07T09:32:26.836Z,555
2018-05-07T09:33:28.887Z,534
2018-05-07T09:34:30.943Z,549
2018-05-07T09:35:33.704Z,610
2018-05-07T09:36:35.755Z,594
2018-05-07T09:37:37.813Z,561
2018-05-07T09:38:39.864Z,521
2018-05-07T09:39:41.904Z,505
2018-05-07T09:40:43.958Z,528
2018-05-07T09:41:46.014Z,615
2018-05-07T09:42:48.105Z,609
2018-05-07T09:43:50.118Z,558
2018-05-07T09:44:52.468Z,613
2018-05-07T09:45:54.816Z,652
2018-05-07T09:46:56.859Z,616
2018-05-07T09:47:59.303Z,652
2018-05-07T09:49:01.458Z,621
2018-05-07T09:50:03.425Z,566
2018-05-07T09:51:05.481Z,572
2018-05-07T09:52:07.530Z,493
2018-05-07T09:53:09.886Z,405
2018-05-07T09:54:11.922Z,385
2018-05-07T09:55:13.977Z,434
2018-05-07T09:56:16.034Z,480
2018-05-07T09:57:18.086Z,494
2018-05-07T09:58:20.146Z,544
2018-05-07T09:59:22.201Z,664
2018-05-07T10:00:24.247Z,620
2018-05-07T10:01:26.890Z,616
2018-05-07T10:02:28.980Z,658
2018-05-07T10:03:30.997Z,499
2018-05-07T10:04:33.053Z,451
2018-05-07T10:05:35.400Z,524
2018-05-07T10:06:38.148Z,579
2018-05-07T10:07:40.203Z,586
2018-05-07T10:08:42.258Z,565
2018-05-07T10:09:44.319Z,563
2018-05-07T10:10:46.370Z,585
2018-05-07T10:11:48.441Z,587
2018-05-07T10:12:50.768Z,578
2018-05-07T10:13:52.822Z,629
2018-05-07T10:14:55.184Z,631
2018-05-07T10:15:57.529Z,572
2018-05-07T10:17:00.028Z,623
2018-05-07T10:18:02.020Z,641
2018-05-07T10:19:04.453Z,611
2018-05-07T10:20:06.512Z,578
2018-05-07T10:21:08.556Z,625
2018-05-07T10:22:10.623Z,581
2018-05-07T10:23:12.681Z,494
2018-05-07T10:24:14.789Z,507
2018-05-07T10:25:16.794Z,480
2018-05-07T10:26:18.856Z,556
2018-05-07T10:27:21.199Z,612
2018-05-07T10:28:23.265Z,719
2018-05-07T10:29:25.306Z,719
2018-05-07T10:30:27.372Z,625
2018-05-07T10:31:29.422Z,603
2018-05-07T10:32:31.483Z,578
2018-05-07T10:33:33.818Z,571
2018-05-07T10:34:35.867Z,587
2018-05-07T10:35:38.207Z,518
2018-05-07T10:36:40.274Z,547
2018-05-07T10:37:42.339Z,519
2018-05-07T10:38:44.397Z,544
2018-05-07T10:39:46.453Z,609
2018-05-07T10:40:48.896Z,540
2018-05-07T10:41:50.949Z,475
2018-05-07T10:42:53.008Z,475
2018-05-07T10:43:55.363Z,512
2018-05-07T10:44:57.707Z,543
2018-05-07T10:45:59.765Z,535
2018-05-07T10:47:01.818Z,585
2018-05-07T10:48:03.880Z,554
2018-05-07T10:49:05.983Z,529
2018-05-07T10:50:07.990Z,532
2018-05-07T10:51:10.044Z,477
2018-05-07T10:52:12.489Z,541
2018-05-07T10:53:14.539Z,573
2018-05-07T10:54:16.591Z,546
2018-05-07T10:55:18.660Z,561
2018-05-07T10:56:20.729Z,641
2018-05-07T10:57:22.772Z,625
2018-05-07T10:58:24.832Z,531
2018-05-07T10:59:27.180Z,547
2018-05-07T11:00:29.232Z,521
2018-05-07T11:01:31.343Z,477
2018-05-07T11:02:33.363Z,428
2018-05-07T11:03:35.421Z,455
2018-05-07T11:04:37.476Z,469
2018-05-07T11:05:39.533Z,485
2018-05-07T11:06:41.592Z,504
2018-05-07T11:07:43.648Z,594
2018-05-07T11:08:45.707Z,636
2018-05-07T11:09:47.764Z,642
2018-05-07T11:10:49.825Z,639
2018-05-07T11:11:51.877Z,545
2018-05-07T11:12:54.328Z,601
2018-05-07T11:13:56.782Z,593
2018-05-07T11:14:58.828Z,626
2018-05-07T11:16:00.883Z,639
2018-05-07T11:17:02.964Z,632
2018-05-07T11:18:05.022Z,540
2018-05-07T11:19:07.076Z,492
2018-05-07T11:20:09.420Z,504
2018-05-07T11:21:11.770Z,495
2018-05-07T11:22:13.826Z,507
2018-05-07T11:23:15.888Z,557
2018-05-07T11:24:17.957Z,515
2018-05-07T11:25:20.017Z,487
2018-05-07T11:26:22.065Z,526
2018-05-07T11:27:24.121Z,561
2018-05-07T11:28:26.180Z,658
2018-05-07T11:29:28.241Z,704
2018-05-07T11:30:30.297Z,654
2018-05-07T11:31:32.360Z,590
2018-05-07T11:32:34.418Z,622
2018-05-07T11:33:36.469Z,603
2018-05-07T11:34:38.528Z,562
2018-05-07T11:35:40.974Z,604
2018-05-07T11:36:43.426Z,584
2018-05-07T11:37:45.476Z,554
2018-05-07T11:38:47.536Z,591
2018-05-07T11:39:49.601Z,620
2018-05-07T11:40:52.249Z,537
2018-05-07T11:41:54.305Z,477
2018-05-07T11:42:56.375Z,512
2018-05-07T11:43:58.431Z,497
2018-05-07T11:45:00.481Z,497
2018-05-07T11:46:02.545Z,505
2018-05-07T11:47:04.606Z,504
2018-05-07T11:48:06.668Z,529
2018-05-07T11:49:08.721Z,508
2018-05-07T11:50:11.167Z,478
2018-05-07T11:51:13.219Z,444
2018-05-07T11:52:15.281Z,488
2018-05-07T11:53:17.858Z,498
2018-05-07T11:54:19.867Z,515
2018-05-07T11:55:21.922Z,542
2018-05-07T11:56:23.980Z,554
2018-05-07T11:57:26.032Z,550
2018-05-07T11:58:28.092Z,585
2018-05-07T11:59:30.151Z,647
2018-05-07T12:00:32.212Z,684
2018-05-07T12:01:34.273Z,646
2018-05-07T12:02:36.417Z,689
2018-05-07T12:03:38.735Z,621
2018-05-07T12:04:40.797Z,605
2018-05-07T12:05:42.850Z,505
2018-05-07T12:06:44.918Z,480
2018-05-07T12:07:47.248Z,498
2018-05-07T12:08:49.319Z,508
2018-05-07T12:09:51.365Z,493
2018-05-07T12:10:53.443Z,510
2018-05-07T12:11:55.530Z,533
2018-05-07T12:12:57.565Z,526
2018-05-07T12:13:59.624Z,489
2018-05-07T12:15:02.075Z,532
2018-05-07T12:16:04.700Z,546
2018-05-07T12:17:06.674Z,552
2018-05-07T12:18:09.120Z,550
2018-05-07T12:19:11.186Z,496
2018-05-07T12:20:13.298Z,549
2018-05-07T12:21:15.312Z,525
2018-05-07T12:22:17.369Z,556
2018-05-07T12:23:19.471Z,531
2018-05-07T12:24:21.481Z,501
2018-05-07T12:25:23.535Z,498
2018-05-07T12:26:25.586Z,475
2018-05-07T12:27:27.650Z,467
2018-05-07T12:28:29.997Z,432
2018-05-07T12:29:32.057Z,444
2018-05-07T12:30:34.115Z,450
2018-05-07T12:31:37.358Z,408
2018-05-07T12:32:40.140Z,475
2018-05-07T12:33:42.583Z,521
2018-05-07T12:34:44.653Z,558
2018-05-07T12:35:47.019Z,559
2018-05-07T12:36:49.079Z,506
2018-05-07T12:37:51.131Z,452
2018-05-07T12:38:53.190Z,451
2018-05-07T12:39:55.264Z,451
2018-05-07T12:40:57.308Z,429
2018-05-07T12:41:59.706Z,462
2018-05-07T12:43:01.777Z,507
2018-05-07T12:44:03.834Z,482
2018-05-07T12:45:05.894Z,431
2018-05-07T12:46:07.963Z,421
2018-05-07T12:47:10.031Z,439
2018-05-07T12:48:12.093Z,436
2018-05-07T12:49:14.139Z,427
2018-05-07T12:50:16.198Z,444
2018-05-07T12:51:18.257Z,514
2018-05-07T12:52:20.781Z,520
2018-05-07T12:53:22.751Z,450
2018-05-07T12:54:24.811Z,462
2018-05-07T12:55:26.867Z,532
2018-05-07T12:56:28.909Z,496
2018-05-07T12:57:30.969Z,510
2018-05-07T12:58:33.039Z,504
2018-05-07T12:59:35.101Z,498
2018-05-07T13:00:37.176Z,517
2018-05-07T13:01:39.525Z,516
2018-05-07T13:02:41.970Z,465
2018-05-07T13:03:44.506Z,436
2018-05-07T13:04:46.874Z,429
2018-05-07T13:05:49.751Z,409
2018-05-07T13:06:51.877Z,416
2018-05-07T13:07:53.993Z,377
2018-05-07T13:08:56.051Z,349
2018-05-07T13:09:58.105Z,353
2018-05-07T13:11:00.172Z,411
2018-05-07T13:12:02.231Z,416
2018-05-07T13:13:04.373Z,428
2018-05-07T13:14:06.359Z,424
2018-05-07T13:15:08.413Z,400
2018-05-07T13:16:10.480Z,463
2018-05-07T13:17:12.923Z,467
2018-05-07T13:18:15.226Z,412
2018-05-07T13:19:17.286Z,380
2018-05-07T13:20:19.346Z,385
2018-05-07T13:21:21.398Z,414
2018-05-07T13:22:23.465Z,404
2018-05-07T13:23:25.803Z,454
2018-05-07T13:24:27.863Z,383
2018-05-07T13:25:29.921Z,344
2018-05-07T13:26:31.984Z,390
2018-05-07T13:27:34.049Z,403
2018-05-07T13:28:36.105Z,459
2018-05-07T13:29:38.160Z,434
2018-05-07T13:30:40.234Z,376
2018-05-07T13:31:42.285Z,344
2018-05-07T13:32:44.346Z,376
2018-05-07T13:33:46.399Z,406
2018-05-07T13:34:48.459Z,420
2018-05-07T13:35:50.908Z,467
2018-05-07T13:36:52.999Z,383
2018-05-07T13:37:55.023Z,344
2018-05-07T13:38:57.097Z,354
2018-05-07T13:39:59.446Z,350
2018-05-07T13:41:01.497Z,375
2018-05-07T13:42:03.564Z,347
2018-05-07T13:43:05.974Z,325
2018-05-07T13:44:08.011Z,351
2018-05-07T13:45:10.360Z,372
2018-05-07T13:46:12.719Z,358
2018-05-07T13:47:14.779Z,328
2018-05-07T13:48:17.143Z,326
2018-05-07T13:49:19.580Z,318
2018-05-07T13:50:21.655Z,301
2018-05-07T13:51:24.005Z,293
2018-05-07T13:52:26.070Z,313
2018-05-07T13:53:28.130Z,359
2018-05-07T13:54:30.222Z,358
2018-05-07T13:55:32.281Z,349
2018-05-07T13:56:34.349Z,352
2018-05-07T13:57:36.553Z,361
2018-05-07T13:58:38.625Z,362
2018-05-07T13:59:40.685Z,332
2018-05-07T14:00:42.745Z,319
2018-05-07T14:01:44.812Z,331
2018-05-07T14:02:46.916Z,311
2018-05-07T14:03:48.937Z,310
2018-05-07T14:04:51.010Z,298
2018-05-07T14:05:53.078Z,285
2018-05-07T14:06:55.145Z,261
2018-05-07T14:07:57.213Z,286
2018-05-07T14:08:59.270Z,333
2018-05-07T14:10:01.731Z,354
2018-05-07T14:11:04.079Z,308
2018-05-07T14:12:06.131Z,293
2018-05-07T14:13:08.195Z,318
2018-05-07T14:14:10.542Z,344
2018-05-07T14:15:12.608Z,348
2018-05-07T14:16:14.671Z,324
2018-05-07T14:17:16.727Z,296
2018-05-07T14:18:19.081Z,307
2018-05-07T14:19:21.151Z,319
2018-05-07T14:20:23.219Z,294
2018-05-07T14:21:25.575Z,308
2018-05-07T14:22:27.917Z,355
2018-05-07T14:23:29.984Z,373
2018-05-07T14:24:32.042Z,367
2018-05-07T14:25:34.392Z,318
2018-05-07T14:26:36.457Z,322
2018-05-07T14:27:38.530Z,337
2018-05-07T14:28:40.579Z,308
2018-05-07T14:29:42.643Z,284
2018-05-07T14:30:44.717Z,298
2018-05-07T14:31:46.779Z,314
2018-05-07T14:32:48.846Z,320
2018-05-07T14:33:50.912Z,331
2018-05-07T14:34:52.983Z,305
2018-05-07T14:35:55.038Z,294
2018-05-07T14:36:57.097Z,285
2018-05-07T14:37:59.169Z,265
2018-05-07T14:39:01.546Z,262
2018-05-07T14:40:03.985Z,246
2018-05-07T14:41:06.727Z,243